Startpagina
METAR-TAF:

METAR-TAF

Vliegvelden :

Saint-Nazaire, Frankrijk

breedte: 47-19N, lengte: 002-10W, hoogte: 3 m

Actueel weer

Dit bericht is 14 minuten geleden gemaakt, om 12:30 UTC
Wind 8 kt uit het noordoosten, variërend tussen het noorden en het oosten
Temperatuur 28°C
Vochtigheid 48%
Druk 1023 hPa
Zicht 10 km of meer
geen wolken onder 1500 m en geen cumulonimbus

METAR: LFRZ 151230Z AUTO 05008KT 360V080 CAVOK 28/16 Q1023 NOSIG

Tijdstip: 14:44 (12:44 UTC)

Verwachting

Dit bericht is 1 uur en het 44 minuten geleden gemaakt, om 11:00 UTC
Verwachting geldig van 15 om 12 UTC tot 16 om 12 UTC
Wind 8 kt uit het noordoosten
Zicht 10 km of meer
geen wolken onder 1500 m en geen cumulonimbus

TAF: LFRZ 151100Z 1512/1612 04008KT CAVOK

Waarnemingen en weersverwachtingen van meer dan 4000 vliegvelden (METAR en TAF).

De beschikbare stations zijn de gele en rode punten op de kaart.

Ga met uw muis naar het station om de naam te zien.

Klik dan om waarnemingen en weersverwachtingen te zien.

kaart wijzigen: klik op de groene knoppen met een zwart kruis om in te zoomen, op de groene knop met een streepje om uit te zoomen of op de groene pijlen voor aangrenzende kaarten.


METAR-TAF: